createdAt,value
2023-04-27T00:00:02.156Z,100933.00
2023-04-27T00:02:40.109Z,100938.16
2023-04-27T00:05:08.208Z,100947.16
2023-04-27T00:07:35.724Z,100930.22
2023-04-27T00:10:05.706Z,100931.59
2023-04-27T00:12:33.108Z,100930.59
2023-04-27T00:15:00.625Z,100937.69
2023-04-27T00:17:29.910Z,100930.97
2023-04-27T00:19:57.302Z,100924.25
2023-04-27T00:22:24.583Z,100918.00
2023-04-27T00:24:51.949Z,100917.00
2023-04-27T00:27:19.264Z,100913.28
2023-04-27T00:29:46.861Z,100921.13
2023-04-27T00:32:14.225Z,100919.06
2023-04-27T00:34:42.969Z,100916.34
2023-04-27T00:37:10.341Z,100921.22
2023-04-27T00:39:37.736Z,100922.31
2023-04-27T00:42:05.204Z,100923.16
2023-04-27T00:44:32.642Z,100917.94
2023-04-27T00:47:00.062Z,100919.06
2023-04-27T00:49:27.935Z,100916.19
2023-04-27T00:51:56.278Z,100914.88
2023-04-27T00:54:24.584Z,100919.19
2023-04-27T00:56:52.884Z,100919.19
2023-04-27T00:59:20.429Z,100922.59
2023-04-27T01:01:51.017Z,100924.06
2023-04-27T01:04:19.954Z,100918.28
2023-04-27T01:06:50.334Z,100913.00
2023-04-27T01:09:19.989Z,100913.41
2023-04-27T01:11:50.413Z,100902.94
2023-04-27T01:14:17.839Z,100904.38
2023-04-27T01:16:46.429Z,100906.31
2023-04-27T01:19:14.088Z,100895.53
2023-04-27T01:21:41.622Z,100901.66
2023-04-27T01:24:09.450Z,100911.97
2023-04-27T01:26:38.184Z,100914.84
2023-04-27T01:29:05.623Z,100913.03
2023-04-27T01:31:33.052Z,100911.09
2023-04-27T01:34:00.428Z,100907.00
2023-04-27T01:36:28.193Z,100906.56
2023-04-27T01:38:56.878Z,100908.13
2023-04-27T01:41:24.244Z,100919.41
2023-04-27T01:43:51.558Z,100924.28
2023-04-27T01:46:18.906Z,100926.06
2023-04-27T01:48:46.332Z,100921.63
2023-04-27T01:51:13.722Z,100936.72
2023-04-27T01:53:42.010Z,100925.31
2023-04-27T01:56:10.415Z,100930.97
2023-04-27T01:58:37.921Z,100936.88
2023-04-27T02:01:07.410Z,100940.59
2023-04-27T02:03:34.969Z,100937.38
2023-04-27T02:06:02.492Z,100944.28
2023-04-27T02:08:29.820Z,100942.19
2023-04-27T02:10:58.063Z,100943.94
2023-04-27T02:13:25.458Z,100945.69
2023-04-27T02:15:52.855Z,100940.75
2023-04-27T02:18:21.875Z,100941.38
2023-04-27T02:20:49.324Z,100942.81
2023-04-27T02:23:16.748Z,100950.69
2023-04-27T02:25:46.854Z,100958.06
2023-04-27T02:28:14.642Z,100962.84
2023-04-27T02:30:42.646Z,100959.63
2023-04-27T02:33:10.145Z,100961.25
2023-04-27T02:35:37.665Z,100963.03
2023-04-27T02:38:05.016Z,100972.34
2023-04-27T02:40:32.459Z,100974.88
2023-04-27T02:43:00.006Z,100975.69
2023-04-27T02:45:28.575Z,100975.19
2023-04-27T02:47:55.940Z,100981.13
2023-04-27T02:50:23.402Z,100979.50
2023-04-27T02:52:50.981Z,100988.81
2023-04-27T02:55:18.530Z,100982.53
2023-04-27T02:57:46.172Z,100985.91
2023-04-27T03:00:13.981Z,100976.47
2023-04-27T03:02:41.498Z,100986.09
2023-04-27T03:05:09.120Z,100977.75
2023-04-27T03:07:36.465Z,100970.06
2023-04-27T03:10:07.630Z,100983.53
2023-04-27T03:12:35.014Z,100990.59
2023-04-27T03:15:02.631Z,100992.34
2023-04-27T03:17:30.155Z,100992.34
2023-04-27T03:19:57.739Z,100990.44
2023-04-27T03:22:25.241Z,100998.28
2023-04-27T03:24:54.065Z,101000.38
2023-04-27T03:27:21.440Z,100994.75
2023-04-27T03:29:56.997Z,101003.59
2023-04-27T03:32:24.447Z,100998.38
2023-04-27T03:34:52.349Z,101004.97
2023-04-27T03:37:19.697Z,100999.97
2023-04-27T03:39:47.253Z,101001.28
2023-04-27T03:42:14.806Z,100995.19
2023-04-27T03:44:42.207Z,100993.56
2023-04-27T03:47:12.264Z,100993.69
2023-04-27T03:49:40.558Z,100998.16
2023-04-27T03:52:08.728Z,100998.34
2023-04-27T03:54:36.838Z,100997.53
2023-04-27T03:57:04.447Z,101001.53
2023-04-27T03:59:31.971Z,101003.94
2023-04-27T04:02:01.125Z,101002.72
2023-04-27T04:04:29.137Z,100996.88
2023-04-27T04:06:57.079Z,100995.25
2023-04-27T04:09:25.143Z,100997.28
2023-04-27T04:11:52.910Z,101000.84
2023-04-27T04:14:20.388Z,101004.84
2023-04-27T04:16:47.834Z,101005.13
2023-04-27T04:19:15.513Z,101012.91
2023-04-27T04:21:43.104Z,101006.38
2023-04-27T04:24:10.490Z,101017.19
2023-04-27T04:26:40.921Z,101017.91
2023-04-27T04:29:10.940Z,101025.75
2023-04-27T04:31:40.058Z,101024.06
2023-04-27T04:34:10.147Z,101032.41
2023-04-27T04:36:38.098Z,101033.50
2023-04-27T04:39:06.798Z,101027.47
2023-04-27T04:41:34.113Z,101038.47
2023-04-27T04:44:03.609Z,101034.69
2023-04-27T04:46:31.110Z,101043.78
2023-04-27T04:48:58.551Z,101041.38
2023-04-27T04:51:25.923Z,101042.38
2023-04-27T04:53:56.610Z,101051.69
2023-04-27T04:56:24.345Z,101051.25
2023-04-27T04:58:54.152Z,101048.28
2023-04-27T05:01:22.048Z,101055.19
2023-04-27T05:03:49.572Z,101057.47
2023-04-27T05:06:16.963Z,101058.94
2023-04-27T05:08:44.523Z,101064.06
2023-04-27T05:11:11.904Z,101062.28
2023-04-27T05:13:40.276Z,101076.25
2023-04-27T05:16:10.548Z,101071.28
2023-04-27T05:18:37.933Z,101079.50
2023-04-27T05:21:05.499Z,101079.63
2023-04-27T05:23:32.872Z,101083.81
2023-04-27T05:26:00.305Z,101078.66
2023-04-27T05:28:27.732Z,101076.09
2023-04-27T05:30:55.042Z,101074.13
2023-04-27T05:33:22.559Z,101074.47
2023-04-27T05:35:49.935Z,101081.31
2023-04-27T05:38:17.572Z,101081.28
2023-04-27T05:40:44.961Z,101080.97
2023-04-27T05:43:12.572Z,101087.66
2023-04-27T05:45:40.641Z,101100.94
2023-04-27T05:48:08.214Z,101092.38
2023-04-27T05:50:35.924Z,101091.84
2023-04-27T05:53:05.633Z,101098.88
2023-04-27T05:55:33.229Z,101089.81
2023-04-27T05:58:08.732Z,101093.63
2023-04-27T06:00:36.918Z,101099.09
2023-04-27T06:03:04.441Z,101096.03
2023-04-27T06:05:32.055Z,101094.97
2023-04-27T06:08:01.509Z,101097.91
2023-04-27T06:10:28.865Z,101105.38
2023-04-27T06:12:56.486Z,101108.78
2023-04-27T06:15:23.812Z,101110.00
2023-04-27T06:17:51.362Z,101104.56
2023-04-27T06:20:18.815Z,101104.13
2023-04-27T06:22:46.928Z,101106.31
2023-04-27T06:25:14.358Z,101106.66
2023-04-27T06:27:41.865Z,101109.97
2023-04-27T06:30:09.637Z,101109.38
2023-04-27T06:32:37.063Z,101113.50
2023-04-27T06:35:04.672Z,101111.09
2023-04-27T06:37:32.809Z,101109.59
2023-04-27T06:40:00.189Z,101103.50
2023-04-27T06:42:27.529Z,101098.91
2023-04-27T06:44:56.393Z,101108.81
2023-04-27T06:47:23.851Z,101110.53
2023-04-27T06:49:51.514Z,101116.66
2023-04-27T06:52:19.036Z,101125.72
2023-04-27T06:54:48.960Z,101116.59
2023-04-27T06:57:16.384Z,101130.50
2023-04-27T06:59:43.786Z,101130.44
2023-04-27T07:02:12.011Z,101129.09
2023-04-27T07:04:39.375Z,101138.72
2023-04-27T07:07:07.047Z,101133.66
2023-04-27T07:09:34.486Z,101134.66
2023-04-27T07:12:02.860Z,101134.28
2023-04-27T07:14:30.524Z,101129.44
2023-04-27T07:16:57.943Z,101127.50
2023-04-27T07:19:25.495Z,101125.72
2023-04-27T07:21:56.140Z,101121.97
2023-04-27T07:24:23.631Z,101121.91
2023-04-27T07:26:50.973Z,101131.91
2023-04-27T07:29:26.923Z,101120.03
2023-04-27T07:31:58.394Z,101126.31
2023-04-27T07:34:25.893Z,101126.78
2023-04-27T07:36:54.602Z,101123.06
2023-04-27T07:39:22.432Z,101121.63
2023-04-27T07:41:54.193Z,101121.78
2023-04-27T07:44:21.665Z,101124.81
2023-04-27T07:46:49.381Z,101123.88
2023-04-27T07:49:17.160Z,101129.91
2023-04-27T07:51:44.520Z,101125.13
2023-04-27T07:54:11.984Z,101129.16
2023-04-27T07:56:42.146Z,101126.53
2023-04-27T07:59:09.615Z,101123.56
2023-04-27T08:01:37.791Z,101136.25
2023-04-27T08:04:05.964Z,101135.38
2023-04-27T08:06:34.611Z,101143.47
2023-04-27T08:09:04.164Z,101137.41
2023-04-27T08:11:32.872Z,101141.00
2023-04-27T08:14:00.254Z,101140.94
2023-04-27T08:16:27.952Z,101139.88
2023-04-27T08:18:55.415Z,101140.53
2023-04-27T08:21:22.801Z,101147.88
2023-04-27T08:23:50.255Z,101148.28
2023-04-27T08:26:17.589Z,101146.31
2023-04-27T08:28:45.130Z,101146.22
2023-04-27T08:31:12.891Z,101154.94
2023-04-27T08:33:40.274Z,101158.75
2023-04-27T08:36:07.975Z,101154.00
2023-04-27T08:38:35.966Z,101151.75
2023-04-27T08:41:14.512Z,101163.53
2023-04-27T08:43:47.840Z,101154.47
2023-04-27T08:46:18.994Z,101157.53
2023-04-27T08:48:47.365Z,101157.53
2023-04-27T08:51:16.059Z,101172.94
2023-04-27T08:53:54.874Z,101175.44
2023-04-27T08:56:27.949Z,101168.72
2023-04-27T08:58:58.048Z,101171.94
2023-04-27T09:01:26.365Z,101165.88
2023-04-27T09:03:58.361Z,101169.91
2023-04-27T09:06:36.324Z,101171.50
2023-04-27T09:09:04.147Z,101171.50
2023-04-27T09:11:37.035Z,101171.97
2023-04-27T09:14:20.657Z,101160.88
2023-04-27T09:16:59.416Z,101164.31
2023-04-27T09:19:28.832Z,101162.00
2023-04-27T09:22:07.498Z,101154.13
2023-04-27T09:24:35.801Z,101159.22
2023-04-27T09:27:04.632Z,101152.28
2023-04-27T09:29:36.662Z,101155.53
2023-04-27T09:32:17.196Z,101150.16
2023-04-27T09:34:45.424Z,101153.63
2023-04-27T09:37:14.591Z,101157.97
2023-04-27T09:39:42.634Z,101151.00
2023-04-27T09:42:13.635Z,101149.47
2023-04-27T09:44:40.984Z,101145.41
2023-04-27T09:47:10.613Z,101137.59
2023-04-27T09:49:38.910Z,101143.75
2023-04-27T09:52:06.317Z,101146.69
2023-04-27T09:54:34.712Z,101131.25
2023-04-27T09:57:23.871Z,101129.69
2023-04-27T10:00:00.456Z,101133.63
2023-04-27T10:02:31.583Z,101126.66
2023-04-27T10:05:26.975Z,101139.09
2023-04-27T10:07:57.397Z,101128.84
2023-04-27T10:10:24.883Z,101112.91
2023-04-27T10:12:58.010Z,101118.22
2023-04-27T10:15:28.195Z,101123.28
2023-04-27T10:17:59.000Z,101131.16
2023-04-27T10:20:31.539Z,101121.44
2023-04-27T10:22:59.724Z,101128.06
2023-04-27T10:25:36.881Z,101132.69
2023-04-27T10:28:04.835Z,101132.25
2023-04-27T10:30:39.513Z,101124.16
2023-04-27T10:33:11.909Z,101119.38
2023-04-27T10:35:41.620Z,101115.03
2023-04-27T10:38:10.510Z,101121.41
2023-04-27T10:40:38.728Z,101124.31
2023-04-27T10:43:13.795Z,101117.00
2023-04-27T10:45:42.554Z,101120.47
2023-04-27T10:48:14.354Z,101118.69
2023-04-27T10:50:42.539Z,101115.47
2023-04-27T10:53:09.992Z,101115.34
2023-04-27T10:55:37.486Z,101113.41
2023-04-27T10:58:05.004Z,101116.69
2023-04-27T11:00:36.674Z,101109.59
2023-04-27T11:03:24.930Z,101117.13
2023-04-27T11:06:04.355Z,101106.41
2023-04-27T11:08:32.818Z,101105.59
2023-04-27T11:11:00.209Z,101113.19
2023-04-27T11:13:31.012Z,101103.25
2023-04-27T11:16:01.157Z,101100.97
2023-04-27T11:18:33.070Z,101098.13
2023-04-27T11:21:18.455Z,101096.63
2023-04-27T11:23:49.203Z,101098.63
2023-04-27T11:26:18.958Z,101097.00
2023-04-27T11:28:58.854Z,101107.13
2023-04-27T11:31:27.200Z,101104.47
2023-04-27T11:33:55.998Z,101095.03
2023-04-27T11:36:23.890Z,101094.75
2023-04-27T11:38:51.440Z,101103.16
2023-04-27T11:41:19.607Z,101103.63
2023-04-27T11:43:49.324Z,101093.28
2023-04-27T11:46:21.320Z,101101.03
2023-04-27T11:48:49.279Z,101099.97
2023-04-27T11:51:16.751Z,101097.97
2023-04-27T11:53:48.190Z,101104.19
2023-04-27T11:56:15.671Z,101090.38
2023-04-27T11:58:46.265Z,101094.06
2023-04-27T12:01:15.473Z,101095.19
2023-04-27T12:03:43.025Z,101095.06
2023-04-27T12:06:31.614Z,101097.84
2023-04-27T12:08:58.376Z,101096.06
2023-04-27T12:11:28.794Z,101093.94
2023-04-27T12:13:56.936Z,101083.00
2023-04-27T12:16:24.457Z,101084.50
2023-04-27T12:18:52.408Z,101081.44
2023-04-27T12:21:20.294Z,101087.50
2023-04-27T12:23:47.799Z,101089.94
2023-04-27T12:26:15.515Z,101082.84
2023-04-27T12:28:43.331Z,101084.31
2023-04-27T12:31:14.250Z,101089.69
2023-04-27T12:33:42.117Z,101079.13
2023-04-27T12:36:09.518Z,101088.03
2023-04-27T12:38:37.249Z,101093.66
2023-04-27T12:41:04.935Z,101087.03
2023-04-27T12:43:32.499Z,101092.53
2023-04-27T12:45:59.853Z,101089.78
2023-04-27T12:48:27.269Z,101093.88
2023-04-27T12:50:54.748Z,101091.38
2023-04-27T12:53:22.339Z,101094.38
2023-04-27T12:55:49.666Z,101093.25
2023-04-27T12:58:19.935Z,101093.72
2023-04-27T13:00:47.403Z,101087.38
2023-04-27T13:03:14.996Z,101081.47
2023-04-27T13:05:42.535Z,101076.69
2023-04-27T13:08:10.146Z,101087.75
2023-04-27T13:10:37.974Z,101076.66
2023-04-27T13:13:06.875Z,101075.84
2023-04-27T13:15:34.213Z,101071.09
2023-04-27T13:18:05.231Z,101075.88
2023-04-27T13:20:32.833Z,101067.50
2023-04-27T13:23:01.010Z,101062.41
2023-04-27T13:25:29.125Z,101050.50
2023-04-27T13:27:59.288Z,101050.50
2023-04-27T13:30:26.701Z,101056.84
2023-04-27T13:32:54.333Z,101058.03
2023-04-27T13:35:21.880Z,101052.50
2023-04-27T13:37:49.351Z,101054.44
2023-04-27T13:40:16.946Z,101053.66
2023-04-27T13:42:44.343Z,101061.13
2023-04-27T13:45:11.861Z,101051.31
2023-04-27T13:47:42.384Z,101059.31
2023-04-27T13:50:11.069Z,101049.47
2023-04-27T13:52:39.313Z,101043.75
2023-04-27T13:55:09.148Z,101052.59
2023-04-27T13:57:36.981Z,101044.94
2023-04-27T14:00:11.384Z,101041.56
2023-04-27T14:02:39.588Z,101044.84
2023-04-27T14:05:07.629Z,101045.56
2023-04-27T14:07:35.873Z,101042.69
2023-04-27T14:10:04.216Z,101042.44
2023-04-27T14:12:32.478Z,101042.63
2023-04-27T14:14:59.906Z,101043.06
2023-04-27T14:17:27.391Z,101036.81
2023-04-27T14:19:54.916Z,101034.91
2023-04-27T14:22:22.382Z,101033.63
2023-04-27T14:24:49.700Z,101039.59
2023-04-27T14:27:17.139Z,101030.97
2023-04-27T14:29:44.588Z,101034.81
2023-04-27T14:32:15.009Z,101030.72
2023-04-27T14:34:42.397Z,101031.56
2023-04-27T14:37:09.739Z,101032.69
2023-04-27T14:39:38.465Z,101028.00
2023-04-27T14:42:05.945Z,101035.50
2023-04-27T14:44:33.561Z,101028.84
2023-04-27T14:47:01.102Z,101029.50
2023-04-27T14:49:28.610Z,101026.38
2023-04-27T14:51:56.097Z,101031.16
2023-04-27T14:54:23.519Z,101014.59
2023-04-27T14:56:51.053Z,101019.28
2023-04-27T14:59:18.537Z,101022.47
2023-04-27T15:01:45.900Z,101013.84
2023-04-27T15:04:13.362Z,101011.50
2023-04-27T15:06:40.820Z,101020.19
2023-04-27T15:09:08.269Z,101022.13
2023-04-27T15:11:35.687Z,101013.34
2023-04-27T15:14:03.148Z,101006.84
2023-04-27T15:16:30.686Z,101010.53
2023-04-27T15:18:58.154Z,101010.06
2023-04-27T15:21:25.523Z,101019.50
2023-04-27T15:23:52.939Z,101019.72
2023-04-27T15:26:20.243Z,101003.59
2023-04-27T15:28:47.719Z,101012.19
2023-04-27T15:31:15.690Z,101013.88
2023-04-27T15:33:43.182Z,101019.41
2023-04-27T15:36:11.195Z,101015.41
2023-04-27T15:38:38.749Z,101021.03
2023-04-27T15:41:08.845Z,101010.25
2023-04-27T15:43:36.515Z,101017.00
2023-04-27T15:46:05.501Z,101015.44
2023-04-27T15:48:33.050Z,101013.13
2023-04-27T15:51:00.435Z,101015.31
2023-04-27T15:53:28.022Z,101017.06
2023-04-27T15:55:55.403Z,101013.50
2023-04-27T15:58:22.866Z,101020.22
2023-04-27T16:00:50.461Z,101019.06
2023-04-27T16:03:41.246Z,101019.22
2023-04-27T16:06:08.971Z,101020.41
2023-04-27T16:08:36.286Z,101014.94
2023-04-27T16:11:03.728Z,101022.69
2023-04-27T16:13:32.623Z,101028.28
2023-04-27T16:16:00.376Z,101021.56
2023-04-27T16:18:27.757Z,101021.91
2023-04-27T16:20:55.120Z,101018.16
2023-04-27T16:23:25.441Z,101017.16
2023-04-27T16:25:53.037Z,101027.00
2023-04-27T16:28:20.581Z,101022.84
2023-04-27T16:30:48.023Z,101035.25
2023-04-27T16:33:15.591Z,101024.16
2023-04-27T16:35:43.038Z,101034.69
2023-04-27T16:38:10.493Z,101028.84
2023-04-27T16:40:37.938Z,101031.56
2023-04-27T16:43:05.468Z,101035.53
2023-04-27T16:45:33.619Z,101038.03
2023-04-27T16:48:02.559Z,101034.28
2023-04-27T16:50:32.885Z,101039.94
2023-04-27T16:53:07.011Z,101037.94
2023-04-27T16:55:35.278Z,101038.59
2023-04-27T16:58:02.721Z,101031.78
2023-04-27T17:00:30.292Z,101050.97
2023-04-27T17:02:57.684Z,101043.53
2023-04-27T17:05:25.457Z,101054.88
2023-04-27T17:07:53.276Z,101043.25
2023-04-27T17:10:20.719Z,101053.16
2023-04-27T17:12:48.107Z,101050.63
2023-04-27T17:15:15.557Z,101053.44
2023-04-27T17:17:44.334Z,101059.03
2023-04-27T17:20:12.722Z,101054.25
2023-04-27T17:22:40.105Z,101055.38
2023-04-27T17:25:08.630Z,101052.84
2023-04-27T17:27:36.035Z,101063.53
2023-04-27T17:30:04.978Z,101065.69
2023-04-27T17:32:32.573Z,101059.22
2023-04-27T17:34:59.965Z,101058.22
2023-04-27T17:37:27.287Z,101057.03
2023-04-27T17:39:54.691Z,101064.00
2023-04-27T17:42:22.099Z,101065.34
2023-04-27T17:44:49.482Z,101064.84
2023-04-27T17:47:19.008Z,101073.50
2023-04-27T17:49:46.450Z,101067.31
2023-04-27T17:52:13.787Z,101072.66
2023-04-27T17:54:41.203Z,101078.13
2023-04-27T17:57:09.402Z,101075.22
2023-04-27T17:59:36.990Z,101082.56
2023-04-27T18:02:04.390Z,101077.38
2023-04-27T18:04:32.628Z,101083.41
2023-04-27T18:07:00.131Z,101081.13
2023-04-27T18:09:28.454Z,101079.34
2023-04-27T18:11:56.987Z,101080.25
2023-04-27T18:14:24.532Z,101081.25
2023-04-27T18:16:53.493Z,101080.59
2023-04-27T18:19:21.050Z,101087.63
2023-04-27T18:21:48.552Z,101087.81
2023-04-27T18:24:15.990Z,101090.41
2023-04-27T18:26:43.284Z,101106.91
2023-04-27T18:29:10.686Z,101100.75
2023-04-27T18:31:38.197Z,101101.97
2023-04-27T18:34:07.731Z,101102.63
2023-04-27T18:36:35.082Z,101111.19
2023-04-27T18:39:02.909Z,101112.91
2023-04-27T18:41:30.310Z,101109.72
2023-04-27T18:44:05.705Z,101106.69
2023-04-27T18:46:33.211Z,101111.47
2023-04-27T18:49:01.382Z,101113.69
2023-04-27T18:51:29.181Z,101119.41
2023-04-27T18:53:56.665Z,101129.22
2023-04-27T18:56:24.164Z,101135.41
2023-04-27T18:58:51.820Z,101145.84
2023-04-27T19:01:24.026Z,101148.13
2023-04-27T19:03:52.335Z,101156.56
2023-04-27T19:06:20.991Z,101164.13
2023-04-27T19:08:48.877Z,101166.16
2023-04-27T19:11:16.414Z,101172.63
2023-04-27T19:13:45.216Z,101173.34
2023-04-27T19:16:12.694Z,101177.25
2023-04-27T19:18:43.531Z,101173.50
2023-04-27T19:21:11.092Z,101180.94
2023-04-27T19:23:38.511Z,101184.69
2023-04-27T19:26:13.297Z,101184.91
2023-04-27T19:28:41.349Z,101182.47
2023-04-27T19:31:09.467Z,101195.84
2023-04-27T19:33:37.125Z,101202.22
2023-04-27T19:36:07.513Z,101207.81
2023-04-27T19:38:36.149Z,101201.78
2023-04-27T19:41:06.722Z,101202.41
2023-04-27T19:43:34.109Z,101212.72
2023-04-27T19:46:01.867Z,101214.81
2023-04-27T19:48:29.259Z,101227.84
2023-04-27T19:50:56.688Z,101226.72
2023-04-27T19:53:24.188Z,101229.34
2023-04-27T19:55:52.029Z,101226.47
2023-04-27T19:58:19.380Z,101226.63
2023-04-27T20:00:47.285Z,101224.13
2023-04-27T20:03:14.828Z,101231.34
2023-04-27T20:05:42.735Z,101240.50
2023-04-27T20:08:10.523Z,101245.19
2023-04-27T20:10:37.907Z,101236.38
2023-04-27T20:13:05.221Z,101241.41
2023-04-27T20:15:32.632Z,101244.38
2023-04-27T20:18:01.720Z,101237.66
2023-04-27T20:20:29.232Z,101241.75
2023-04-27T20:22:56.634Z,101248.50
2023-04-27T20:25:25.674Z,101242.78
2023-04-27T20:27:53.035Z,101244.97
2023-04-27T20:30:20.500Z,101244.63
2023-04-27T20:32:48.634Z,101238.09
2023-04-27T20:35:16.008Z,101243.28
2023-04-27T20:37:43.860Z,101255.50
2023-04-27T20:40:14.532Z,101246.94
2023-04-27T20:42:44.909Z,101251.59
2023-04-27T20:45:12.310Z,101250.69
2023-04-27T20:47:39.668Z,101256.81
2023-04-27T20:50:07.904Z,101254.22
2023-04-27T20:52:35.898Z,101261.84
2023-04-27T20:55:04.493Z,101262.19
2023-04-27T20:57:32.236Z,101256.47
2023-04-27T20:59:59.664Z,101260.56
2023-04-27T21:02:27.098Z,101260.22
2023-04-27T21:04:54.486Z,101261.38
2023-04-27T21:07:21.946Z,101265.34
2023-04-27T21:09:49.255Z,101266.28
2023-04-27T21:12:17.695Z,101262.81
2023-04-27T21:14:48.318Z,101262.03
2023-04-27T21:17:15.635Z,101273.53
2023-04-27T21:19:42.991Z,101263.34
2023-04-27T21:22:10.454Z,101268.84
2023-04-27T21:24:37.730Z,101266.38
2023-04-27T21:27:05.164Z,101257.78
2023-04-27T21:29:37.945Z,101260.63
2023-04-27T21:32:05.431Z,101258.69
2023-04-27T21:34:32.736Z,101258.66
2023-04-27T21:37:00.157Z,101263.19
2023-04-27T21:39:30.186Z,101262.91
2023-04-27T21:41:57.501Z,101260.59
2023-04-27T21:44:24.980Z,101267.63
2023-04-27T21:46:52.424Z,101263.50
2023-04-27T21:49:19.756Z,101251.50
2023-04-27T21:51:47.157Z,101261.28
2023-04-27T21:54:14.672Z,101252.81
2023-04-27T21:56:42.676Z,101262.69
2023-04-27T21:59:10.092Z,101253.81
2023-04-27T22:01:37.887Z,101258.50
2023-04-27T22:04:06.390Z,101250.28
2023-04-27T22:06:33.882Z,101247.44
2023-04-27T22:09:01.834Z,101254.63
2023-04-27T22:11:29.714Z,101251.88
2023-04-27T22:13:57.147Z,101259.41
2023-04-27T22:16:24.575Z,101251.06
2023-04-27T22:18:52.196Z,101262.34
2023-04-27T22:21:19.600Z,101261.22
2023-04-27T22:23:48.044Z,101263.34
2023-04-27T22:26:15.549Z,101267.56
2023-04-27T22:28:46.003Z,101257.84
2023-04-27T22:31:13.526Z,101262.47
2023-04-27T22:33:40.909Z,101263.22
2023-04-27T22:36:08.587Z,101261.47
2023-04-27T22:38:36.028Z,101269.34
2023-04-27T22:41:04.895Z,101275.91
2023-04-27T22:43:32.251Z,101272.38
2023-04-27T22:45:59.690Z,101277.56
2023-04-27T22:48:27.279Z,101271.81
2023-04-27T22:50:54.679Z,101277.50
2023-04-27T22:53:22.817Z,101270.72
2023-04-27T22:55:50.329Z,101275.38
2023-04-27T22:58:18.391Z,101285.38
2023-04-27T23:00:45.869Z,101283.78
2023-04-27T23:03:13.467Z,101283.00
2023-04-27T23:05:41.161Z,101285.28
2023-04-27T23:08:08.527Z,101284.22
2023-04-27T23:10:39.937Z,101282.28
2023-04-27T23:13:11.297Z,101279.69
2023-04-27T23:15:41.831Z,101278.34
2023-04-27T23:18:09.134Z,101274.16
2023-04-27T23:20:36.505Z,101281.69
2023-04-27T23:23:03.867Z,101278.50
2023-04-27T23:25:34.304Z,101279.81
2023-04-27T23:28:01.703Z,101273.69
2023-04-27T23:30:30.518Z,101271.97
2023-04-27T23:32:57.894Z,101284.53
2023-04-27T23:35:27.738Z,101273.78
2023-04-27T23:37:55.513Z,101278.09
2023-04-27T23:40:22.870Z,101266.13
2023-04-27T23:42:52.140Z,101272.72
2023-04-27T23:45:20.477Z,101275.13
2023-04-27T23:47:47.815Z,101269.13
2023-04-27T23:50:15.868Z,101275.41
2023-04-27T23:52:43.300Z,101265.44
2023-04-27T23:55:10.876Z,101262.97
2023-04-27T23:57:38.169Z,101267.41
